sensor_id;sensor_type;location;lat;lon;timestamp;temperature;humidity
10846;DHT22;5476;51.540;7.186;2023-05-10T00:01:08;15.70;99.90
10846;DHT22;5476;51.540;7.186;2023-05-10T00:03:37;15.00;99.90
10846;DHT22;5476;51.540;7.186;2023-05-10T00:06:03;15.10;99.90
10846;DHT22;5476;51.540;7.186;2023-05-10T00:08:31;15.00;99.90
10846;DHT22;5476;51.540;7.186;2023-05-10T00:10:58;15.10;99.90
10846;DHT22;5476;51.540;7.186;2023-05-10T00:13:25;15.20;99.90
10846;DHT22;5476;51.540;7.186;2023-05-10T00:15:51;15.00;99.90
10846;DHT22;5476;51.540;7.186;2023-05-10T00:18:19;15.00;99.90
10846;DHT22;5476;51.540;7.186;2023-05-10T00:20:47;14.90;99.90
10846;DHT22;5476;51.540;7.186;2023-05-10T00:23:15;14.90;99.90
10846;DHT22;5476;51.540;7.186;2023-05-10T00:25:42;14.90;99.90
10846;DHT22;5476;51.540;7.186;2023-05-10T00:28:08;14.90;99.90
10846;DHT22;5476;51.540;7.186;2023-05-10T00:30:35;14.90;99.90
10846;DHT22;5476;51.540;7.186;2023-05-10T00:33:02;14.80;99.90
10846;DHT22;5476;51.540;7.186;2023-05-10T00:35:29;14.90;99.90
10846;DHT22;5476;51.540;7.186;2023-05-10T00:37:58;14.80;99.90
10846;DHT22;5476;51.540;7.186;2023-05-10T00:40:25;14.90;99.90
10846;DHT22;5476;51.540;7.186;2023-05-10T00:42:52;14.90;99.90
10846;DHT22;5476;51.540;7.186;2023-05-10T00:45:19;14.90;99.90
10846;DHT22;5476;51.540;7.186;2023-05-10T00:47:46;15.00;99.90
10846;DHT22;5476;51.540;7.186;2023-05-10T00:50:13;15.00;99.90
10846;DHT22;5476;51.540;7.186;2023-05-10T00:52:41;15.00;99.90
10846;DHT22;5476;51.540;7.186;2023-05-10T00:55:11;15.00;99.90
10846;DHT22;5476;51.540;7.186;2023-05-10T00:57:38;15.00;99.90
10846;DHT22;5476;51.540;7.186;2023-05-10T01:00:06;15.00;99.90
10846;DHT22;5476;51.540;7.186;2023-05-10T01:02:34;15.00;99.90
10846;DHT22;5476;51.540;7.186;2023-05-10T01:05:02;15.00;99.90
10846;DHT22;5476;51.540;7.186;2023-05-10T01:07:30;15.00;99.90
10846;DHT22;5476;51.540;7.186;2023-05-10T01:09:57;14.90;99.90
10846;DHT22;5476;51.540;7.186;2023-05-10T01:12:27;15.00;99.90
10846;DHT22;5476;51.540;7.186;2023-05-10T01:14:55;14.90;99.90
10846;DHT22;5476;51.540;7.186;2023-05-10T01:17:22;14.90;99.90
10846;DHT22;5476;51.540;7.186;2023-05-10T01:19:49;14.80;99.90
10846;DHT22;5476;51.540;7.186;2023-05-10T01:22:51;14.70;99.90
10846;DHT22;5476;51.540;7.186;2023-05-10T01:25:53;14.70;99.90
10846;DHT22;5476;51.540;7.186;2023-05-10T01:28:43;14.70;99.90
10846;DHT22;5476;51.540;7.186;2023-05-10T01:31:30;14.70;99.90
10846;DHT22;5476;51.540;7.186;2023-05-10T01:34:06;14.70;99.90
10846;DHT22;5476;51.540;7.186;2023-05-10T01:36:40;14.70;99.90
10846;DHT22;5476;51.540;7.186;2023-05-10T01:39:27;14.60;99.90
10846;DHT22;5476;51.540;7.186;2023-05-10T01:41:59;14.60;99.90
10846;DHT22;5476;51.540;7.186;2023-05-10T01:44:31;14.50;99.90
10846;DHT22;5476;51.540;7.186;2023-05-10T01:47:05;14.50;99.90
10846;DHT22;5476;51.540;7.186;2023-05-10T01:49:40;13.80;99.90
10846;DHT22;5476;51.540;7.186;2023-05-10T01:52:10;14.60;99.90
10846;DHT22;5476;51.540;7.186;2023-05-10T01:54:42;14.50;99.90
10846;DHT22;5476;51.540;7.186;2023-05-10T01:57:10;14.50;99.90
10846;DHT22;5476;51.540;7.186;2023-05-10T01:59:40;14.50;99.90
10846;DHT22;5476;51.540;7.186;2023-05-10T02:02:09;14.50;99.90
10846;DHT22;5476;51.540;7.186;2023-05-10T02:04:39;14.50;99.90
10846;DHT22;5476;51.540;7.186;2023-05-10T02:07:08;14.50;99.90
10846;DHT22;5476;51.540;7.186;2023-05-10T02:09:37;14.60;99.90
10846;DHT22;5476;51.540;7.186;2023-05-10T02:12:05;14.70;99.90
10846;DHT22;5476;51.540;7.186;2023-05-10T02:14:35;14.60;99.90
10846;DHT22;5476;51.540;7.186;2023-05-10T02:17:05;14.60;99.90
10846;DHT22;5476;51.540;7.186;2023-05-10T02:19:34;14.60;99.90
10846;DHT22;5476;51.540;7.186;2023-05-10T02:22:04;14.60;99.90
10846;DHT22;5476;51.540;7.186;2023-05-10T02:24:32;14.60;99.90
10846;DHT22;5476;51.540;7.186;2023-05-10T02:27:02;14.60;99.90
10846;DHT22;5476;51.540;7.186;2023-05-10T02:29:29;14.60;99.90
10846;DHT22;5476;51.540;7.186;2023-05-10T02:31:58;14.60;99.90
10846;DHT22;5476;51.540;7.186;2023-05-10T02:34:27;14.60;99.90
10846;DHT22;5476;51.540;7.186;2023-05-10T02:36:55;14.60;99.90
10846;DHT22;5476;51.540;7.186;2023-05-10T02:39:24;14.60;99.90
10846;DHT22;5476;51.540;7.186;2023-05-10T02:41:54;14.60;99.90
10846;DHT22;5476;51.540;7.186;2023-05-10T02:44:22;14.60;99.90
10846;DHT22;5476;51.540;7.186;2023-05-10T02:46:50;14.50;99.90
10846;DHT22;5476;51.540;7.186;2023-05-10T02:49:18;14.50;99.90
10846;DHT22;5476;51.540;7.186;2023-05-10T02:51:50;14.50;99.90
10846;DHT22;5476;51.540;7.186;2023-05-10T02:54:20;14.40;99.90
10846;DHT22;5476;51.540;7.186;2023-05-10T02:56:52;11.80;99.90
10846;DHT22;5476;51.540;7.186;2023-05-10T02:59:20;14.40;99.90
10846;DHT22;5476;51.540;7.186;2023-05-10T03:01:47;14.30;99.90
10846;DHT22;5476;51.540;7.186;2023-05-10T03:04:14;14.40;99.90
10846;DHT22;5476;51.540;7.186;2023-05-10T03:06:41;14.50;99.90
10846;DHT22;5476;51.540;7.186;2023-05-10T03:09:09;14.50;99.90
10846;DHT22;5476;51.540;7.186;2023-05-10T03:11:47;14.50;99.90
10846;DHT22;5476;51.540;7.186;2023-05-10T03:14:24;14.60;99.90
10846;DHT22;5476;51.540;7.186;2023-05-10T03:17:00;14.60;99.90
10846;DHT22;5476;51.540;7.186;2023-05-10T03:19:33;14.60;99.90
10846;DHT22;5476;51.540;7.186;2023-05-10T03:22:06;14.60;99.90
10846;DHT22;5476;51.540;7.186;2023-05-10T03:24:35;14.60;99.90
10846;DHT22;5476;51.540;7.186;2023-05-10T03:27:03;14.60;99.90
10846;DHT22;5476;51.540;7.186;2023-05-10T03:29:33;14.70;99.90
10846;DHT22;5476;51.540;7.186;2023-05-10T03:32:00;14.70;99.90
10846;DHT22;5476;51.540;7.186;2023-05-10T03:34:30;14.70;99.90
10846;DHT22;5476;51.540;7.186;2023-05-10T03:36:57;14.70;99.90
10846;DHT22;5476;51.540;7.186;2023-05-10T03:39:24;14.70;99.90
10846;DHT22;5476;51.540;7.186;2023-05-10T03:41:51;14.70;99.90
10846;DHT22;5476;51.540;7.186;2023-05-10T03:44:18;14.70;99.90
10846;DHT22;5476;51.540;7.186;2023-05-10T03:46:46;14.30;99.90
10846;DHT22;5476;51.540;7.186;2023-05-10T03:49:13;14.80;99.90
10846;DHT22;5476;51.540;7.186;2023-05-10T03:51:40;14.70;99.90
10846;DHT22;5476;51.540;7.186;2023-05-10T03:54:07;14.70;99.90
10846;DHT22;5476;51.540;7.186;2023-05-10T03:56:34;14.70;99.90
10846;DHT22;5476;51.540;7.186;2023-05-10T03:59:01;14.60;99.90
10846;DHT22;5476;51.540;7.186;2023-05-10T04:01:32;14.60;99.90
10846;DHT22;5476;51.540;7.186;2023-05-10T04:04:01;14.70;99.90
10846;DHT22;5476;51.540;7.186;2023-05-10T04:06:27;14.70;99.90
10846;DHT22;5476;51.540;7.186;2023-05-10T04:08:54;14.70;99.90
10846;DHT22;5476;51.540;7.186;2023-05-10T04:11:21;14.60;99.90
10846;DHT22;5476;51.540;7.186;2023-05-10T04:13:50;14.50;99.90
10846;DHT22;5476;51.540;7.186;2023-05-10T04:16:17;14.60;99.90
10846;DHT22;5476;51.540;7.186;2023-05-10T04:18:43;14.60;99.90
10846;DHT22;5476;51.540;7.186;2023-05-10T04:21:15;14.60;99.90
10846;DHT22;5476;51.540;7.186;2023-05-10T04:23:42;14.70;99.90
10846;DHT22;5476;51.540;7.186;2023-05-10T04:26:09;14.70;99.90
10846;DHT22;5476;51.540;7.186;2023-05-10T04:28:36;14.60;99.90
10846;DHT22;5476;51.540;7.186;2023-05-10T04:31:04;14.50;99.90
10846;DHT22;5476;51.540;7.186;2023-05-10T04:33:32;14.50;99.90
10846;DHT22;5476;51.540;7.186;2023-05-10T04:35:59;14.30;99.90
10846;DHT22;5476;51.540;7.186;2023-05-10T04:38:28;14.30;99.90
10846;DHT22;5476;51.540;7.186;2023-05-10T04:41:04;14.30;99.90
10846;DHT22;5476;51.540;7.186;2023-05-10T04:43:31;14.40;99.90
10846;DHT22;5476;51.540;7.186;2023-05-10T04:45:58;14.40;99.90
10846;DHT22;5476;51.540;7.186;2023-05-10T04:48:25;14.40;99.90
10846;DHT22;5476;51.540;7.186;2023-05-10T04:50:52;14.50;99.90
10846;DHT22;5476;51.540;7.186;2023-05-10T04:53:19;15.60;99.90
10846;DHT22;5476;51.540;7.186;2023-05-10T04:55:47;14.50;99.90
10846;DHT22;5476;51.540;7.186;2023-05-10T04:58:14;14.50;99.90
10846;DHT22;5476;51.540;7.186;2023-05-10T05:00:41;14.50;99.90
10846;DHT22;5476;51.540;7.186;2023-05-10T05:03:08;14.50;99.90
10846;DHT22;5476;51.540;7.186;2023-05-10T05:05:35;14.40;99.90
10846;DHT22;5476;51.540;7.186;2023-05-10T05:08:02;14.50;99.90
10846;DHT22;5476;51.540;7.186;2023-05-10T05:10:29;14.50;99.90
10846;DHT22;5476;51.540;7.186;2023-05-10T05:12:57;14.40;99.90
10846;DHT22;5476;51.540;7.186;2023-05-10T05:15:24;14.40;99.90
10846;DHT22;5476;51.540;7.186;2023-05-10T05:17:51;14.40;99.90
10846;DHT22;5476;51.540;7.186;2023-05-10T05:20:18;14.40;99.90
10846;DHT22;5476;51.540;7.186;2023-05-10T05:22:45;14.40;99.90
10846;DHT22;5476;51.540;7.186;2023-05-10T05:25:12;14.40;99.90
10846;DHT22;5476;51.540;7.186;2023-05-10T05:27:40;14.50;99.90
10846;DHT22;5476;51.540;7.186;2023-05-10T05:30:09;14.50;99.90
10846;DHT22;5476;51.540;7.186;2023-05-10T05:32:36;14.50;99.90
10846;DHT22;5476;51.540;7.186;2023-05-10T05:35:04;14.60;99.90
10846;DHT22;5476;51.540;7.186;2023-05-10T05:37:31;14.70;99.90
10846;DHT22;5476;51.540;7.186;2023-05-10T05:39:58;14.70;99.90
10846;DHT22;5476;51.540;7.186;2023-05-10T05:42:27;14.70;99.90
10846;DHT22;5476;51.540;7.186;2023-05-10T05:44:54;17.00;99.90
10846;DHT22;5476;51.540;7.186;2023-05-10T05:47:22;15.10;99.90
10846;DHT22;5476;51.540;7.186;2023-05-10T05:49:51;14.70;99.90
10846;DHT22;5476;51.540;7.186;2023-05-10T05:52:18;14.70;99.90
10846;DHT22;5476;51.540;7.186;2023-05-10T05:54:45;14.70;99.90
10846;DHT22;5476;51.540;7.186;2023-05-10T05:57:12;14.70;99.90
10846;DHT22;5476;51.540;7.186;2023-05-10T05:59:39;14.60;99.90
10846;DHT22;5476;51.540;7.186;2023-05-10T06:02:09;14.60;99.90
10846;DHT22;5476;51.540;7.186;2023-05-10T06:04:37;14.60;99.90
10846;DHT22;5476;51.540;7.186;2023-05-10T06:07:04;14.60;99.90
10846;DHT22;5476;51.540;7.186;2023-05-10T06:09:31;14.70;99.90
10846;DHT22;5476;51.540;7.186;2023-05-10T06:11:58;14.70;99.90
10846;DHT22;5476;51.540;7.186;2023-05-10T06:14:25;14.70;99.90
10846;DHT22;5476;51.540;7.186;2023-05-10T06:16:52;14.70;99.90
10846;DHT22;5476;51.540;7.186;2023-05-10T06:19:19;14.60;99.90
10846;DHT22;5476;51.540;7.186;2023-05-10T06:21:48;14.70;99.90
10846;DHT22;5476;51.540;7.186;2023-05-10T06:24:15;14.70;99.90
10846;DHT22;5476;51.540;7.186;2023-05-10T06:26:42;14.70;99.90
10846;DHT22;5476;51.540;7.186;2023-05-10T06:29:08;14.80;99.90
10846;DHT22;5476;51.540;7.186;2023-05-10T06:31:35;14.80;99.90
10846;DHT22;5476;51.540;7.186;2023-05-10T06:34:02;14.90;99.90
10846;DHT22;5476;51.540;7.186;2023-05-10T06:36:29;14.90;99.90
10846;DHT22;5476;51.540;7.186;2023-05-10T06:42:09;15.00;99.90
10846;DHT22;5476;51.540;7.186;2023-05-10T06:44:36;15.00;99.90
10846;DHT22;5476;51.540;7.186;2023-05-10T06:47:03;15.00;99.90
10846;DHT22;5476;51.540;7.186;2023-05-10T06:49:30;15.00;99.90
10846;DHT22;5476;51.540;7.186;2023-05-10T06:51:57;15.00;99.90
10846;DHT22;5476;51.540;7.186;2023-05-10T06:54:25;15.10;99.90
10846;DHT22;5476;51.540;7.186;2023-05-10T06:56:52;15.10;99.90
10846;DHT22;5476;51.540;7.186;2023-05-10T06:59:19;15.20;99.90
10846;DHT22;5476;51.540;7.186;2023-05-10T07:01:47;15.40;99.90
10846;DHT22;5476;51.540;7.186;2023-05-10T07:04:14;15.40;99.90
10846;DHT22;5476;51.540;7.186;2023-05-10T07:06:40;15.50;99.90
10846;DHT22;5476;51.540;7.186;2023-05-10T07:09:08;15.40;99.90
10846;DHT22;5476;51.540;7.186;2023-05-10T07:11:36;15.40;99.90
10846;DHT22;5476;51.540;7.186;2023-05-10T07:14:03;15.20;99.90
10846;DHT22;5476;51.540;7.186;2023-05-10T07:16:30;15.30;99.90
10846;DHT22;5476;51.540;7.186;2023-05-10T07:18:57;15.30;99.90
10846;DHT22;5476;51.540;7.186;2023-05-10T07:21:24;15.30;99.90
10846;DHT22;5476;51.540;7.186;2023-05-10T07:23:54;15.40;99.90
10846;DHT22;5476;51.540;7.186;2023-05-10T07:26:20;15.40;99.90
10846;DHT22;5476;51.540;7.186;2023-05-10T07:28:49;15.50;99.90
10846;DHT22;5476;51.540;7.186;2023-05-10T07:31:16;15.60;99.90
10846;DHT22;5476;51.540;7.186;2023-05-10T07:33:43;15.70;99.90
10846;DHT22;5476;51.540;7.186;2023-05-10T07:36:10;15.80;99.90
10846;DHT22;5476;51.540;7.186;2023-05-10T07:38:36;15.90;99.90
10846;DHT22;5476;51.540;7.186;2023-05-10T07:41:03;15.90;99.90
10846;DHT22;5476;51.540;7.186;2023-05-10T07:43:30;15.90;99.90
10846;DHT22;5476;51.540;7.186;2023-05-10T07:45:59;16.00;99.90
10846;DHT22;5476;51.540;7.186;2023-05-10T07:48:26;16.00;99.90
10846;DHT22;5476;51.540;7.186;2023-05-10T07:50:53;16.10;99.90
10846;DHT22;5476;51.540;7.186;2023-05-10T07:53:20;16.10;99.90
10846;DHT22;5476;51.540;7.186;2023-05-10T07:55:50;16.20;99.90
10846;DHT22;5476;51.540;7.186;2023-05-10T07:58:17;16.30;99.90
10846;DHT22;5476;51.540;7.186;2023-05-10T08:00:44;16.40;99.90
10846;DHT22;5476;51.540;7.186;2023-05-10T08:03:12;16.40;99.90
10846;DHT22;5476;51.540;7.186;2023-05-10T08:05:40;16.50;99.90
10846;DHT22;5476;51.540;7.186;2023-05-10T08:08:07;16.50;99.90
10846;DHT22;5476;51.540;7.186;2023-05-10T08:10:34;16.50;99.90
10846;DHT22;5476;51.540;7.186;2023-05-10T08:13:01;16.40;99.90
10846;DHT22;5476;51.540;7.186;2023-05-10T08:15:28;16.30;99.90
10846;DHT22;5476;51.540;7.186;2023-05-10T08:17:55;16.20;99.90
10846;DHT22;5476;51.540;7.186;2023-05-10T08:20:23;16.30;99.90
10846;DHT22;5476;51.540;7.186;2023-05-10T08:25:17;16.40;99.90
10846;DHT22;5476;51.540;7.186;2023-05-10T08:27:44;16.40;99.90
10846;DHT22;5476;51.540;7.186;2023-05-10T08:30:13;16.50;99.90
10846;DHT22;5476;51.540;7.186;2023-05-10T08:32:40;16.40;99.90
10846;DHT22;5476;51.540;7.186;2023-05-10T08:35:07;16.40;99.90
10846;DHT22;5476;51.540;7.186;2023-05-10T08:37:36;16.30;99.90
10846;DHT22;5476;51.540;7.186;2023-05-10T08:40:03;16.20;99.90
10846;DHT22;5476;51.540;7.186;2023-05-10T08:42:30;16.20;99.90
10846;DHT22;5476;51.540;7.186;2023-05-10T08:45:02;16.20;99.90
10846;DHT22;5476;51.540;7.186;2023-05-10T08:47:30;16.20;99.90
10846;DHT22;5476;51.540;7.186;2023-05-10T08:49:58;16.20;99.90
10846;DHT22;5476;51.540;7.186;2023-05-10T08:52:26;16.30;99.90
10846;DHT22;5476;51.540;7.186;2023-05-10T08:54:56;16.30;99.90
10846;DHT22;5476;51.540;7.186;2023-05-10T08:57:23;16.40;99.90
10846;DHT22;5476;51.540;7.186;2023-05-10T08:59:50;16.50;99.90
10846;DHT22;5476;51.540;7.186;2023-05-10T09:02:18;16.60;99.90
10846;DHT22;5476;51.540;7.186;2023-05-10T09:04:46;16.50;99.90
10846;DHT22;5476;51.540;7.186;2023-05-10T09:07:14;16.50;99.90
10846;DHT22;5476;51.540;7.186;2023-05-10T09:09:41;16.60;99.90
10846;DHT22;5476;51.540;7.186;2023-05-10T09:12:10;16.60;99.90
10846;DHT22;5476;51.540;7.186;2023-05-10T09:14:38;16.60;99.90
10846;DHT22;5476;51.540;7.186;2023-05-10T09:17:06;14.40;99.90
10846;DHT22;5476;51.540;7.186;2023-05-10T09:19:46;16.70;99.90
10846;DHT22;5476;51.540;7.186;2023-05-10T09:22:13;16.80;99.90
10846;DHT22;5476;51.540;7.186;2023-05-10T09:24:42;16.90;99.90
10846;DHT22;5476;51.540;7.186;2023-05-10T09:27:12;16.80;99.90
10846;DHT22;5476;51.540;7.186;2023-05-10T09:29:39;16.70;99.90
10846;DHT22;5476;51.540;7.186;2023-05-10T09:32:06;16.70;99.90
10846;DHT22;5476;51.540;7.186;2023-05-10T09:34:33;16.80;99.90
10846;DHT22;5476;51.540;7.186;2023-05-10T09:37:05;16.80;99.90
10846;DHT22;5476;51.540;7.186;2023-05-10T09:39:34;17.10;99.90
10846;DHT22;5476;51.540;7.186;2023-05-10T09:42:03;17.10;99.90
10846;DHT22;5476;51.540;7.186;2023-05-10T09:47:19;16.10;99.90
10846;DHT22;5476;51.540;7.186;2023-05-10T09:49:49;18.10;99.90
10846;DHT22;5476;51.540;7.186;2023-05-10T09:52:25;18.40;99.90
10846;DHT22;5476;51.540;7.186;2023-05-10T09:54:57;17.70;99.90
10846;DHT22;5476;51.540;7.186;2023-05-10T10:05:11;19.00;99.90
10846;DHT22;5476;51.540;7.186;2023-05-10T10:08:05;18.60;99.90
10846;DHT22;5476;51.540;7.186;2023-05-10T10:13:53;18.80;99.90
10846;DHT22;5476;51.540;7.186;2023-05-10T10:16:20;18.60;99.90
10846;DHT22;5476;51.540;7.186;2023-05-10T10:19:12;18.40;99.90
10846;DHT22;5476;51.540;7.186;2023-05-10T10:21:44;18.30;99.90
10846;DHT22;5476;51.540;7.186;2023-05-10T10:28:20;20.20;99.90
10846;DHT22;5476;51.540;7.186;2023-05-10T10:30:51;17.90;99.90
10846;DHT22;5476;51.540;7.186;2023-05-10T10:33:51;17.90;99.90
10846;DHT22;5476;51.540;7.186;2023-05-10T10:36:22;18.00;99.90
10846;DHT22;5476;51.540;7.186;2023-05-10T10:38:58;18.00;99.90
10846;DHT22;5476;51.540;7.186;2023-05-10T10:41:33;18.00;99.90
10846;DHT22;5476;51.540;7.186;2023-05-10T10:44:22;18.00;99.90
10846;DHT22;5476;51.540;7.186;2023-05-10T10:49:49;18.20;99.90
10846;DHT22;5476;51.540;7.186;2023-05-10T10:52:25;18.10;99.90
10846;DHT22;5476;51.540;7.186;2023-05-10T10:55:00;18.10;99.90
10846;DHT22;5476;51.540;7.186;2023-05-10T10:57:29;18.10;99.90
10846;DHT22;5476;51.540;7.186;2023-05-10T11:00:20;18.20;99.90
10846;DHT22;5476;51.540;7.186;2023-05-10T11:02:49;18.20;99.90
10846;DHT22;5476;51.540;7.186;2023-05-10T11:05:44;18.10;99.90
10846;DHT22;5476;51.540;7.186;2023-05-10T11:08:14;18.20;99.90
10846;DHT22;5476;51.540;7.186;2023-05-10T11:10:51;18.20;99.90
10846;DHT22;5476;51.540;7.186;2023-05-10T11:13:27;18.20;99.90
10846;DHT22;5476;51.540;7.186;2023-05-10T11:15:56;18.10;99.90
10846;DHT22;5476;51.540;7.186;2023-05-10T11:18:25;18.00;99.90
10846;DHT22;5476;51.540;7.186;2023-05-10T11:20:57;18.00;99.90
10846;DHT22;5476;51.540;7.186;2023-05-10T11:23:29;17.90;99.90
10846;DHT22;5476;51.540;7.186;2023-05-10T11:25:59;17.80;99.90
10846;DHT22;5476;51.540;7.186;2023-05-10T11:28:27;17.80;99.90
10846;DHT22;5476;51.540;7.186;2023-05-10T11:30:55;17.80;99.90
10846;DHT22;5476;51.540;7.186;2023-05-10T11:33:22;17.90;99.90
10846;DHT22;5476;51.540;7.186;2023-05-10T11:35:49;19.70;99.90
10846;DHT22;5476;51.540;7.186;2023-05-10T11:38:16;17.90;99.90
10846;DHT22;5476;51.540;7.186;2023-05-10T11:40:45;18.00;99.90
10846;DHT22;5476;51.540;7.186;2023-05-10T11:43:13;18.00;99.90
10846;DHT22;5476;51.540;7.186;2023-05-10T11:45:41;18.10;99.90
10846;DHT22;5476;51.540;7.186;2023-05-10T11:48:08;18.10;99.90
10846;DHT22;5476;51.540;7.186;2023-05-10T11:50:35;18.20;99.90
10846;DHT22;5476;51.540;7.186;2023-05-10T11:53:02;18.30;99.90
10846;DHT22;5476;51.540;7.186;2023-05-10T11:55:29;18.50;99.90
10846;DHT22;5476;51.540;7.186;2023-05-10T11:58:02;18.60;99.90
10846;DHT22;5476;51.540;7.186;2023-05-10T12:00:31;18.60;99.90
10846;DHT22;5476;51.540;7.186;2023-05-10T12:03:00;18.60;99.90
10846;DHT22;5476;51.540;7.186;2023-05-10T12:05:27;18.60;99.90
10846;DHT22;5476;51.540;7.186;2023-05-10T12:08:13;18.50;99.90
10846;DHT22;5476;51.540;7.186;2023-05-10T12:10:40;18.40;99.90
10846;DHT22;5476;51.540;7.186;2023-05-10T12:13:11;18.30;99.90
10846;DHT22;5476;51.540;7.186;2023-05-10T12:15:40;18.40;99.90
10846;DHT22;5476;51.540;7.186;2023-05-10T12:18:08;18.50;99.90
10846;DHT22;5476;51.540;7.186;2023-05-10T12:20:36;18.60;99.90
10846;DHT22;5476;51.540;7.186;2023-05-10T12:23:03;18.80;99.90
10846;DHT22;5476;51.540;7.186;2023-05-10T12:25:32;18.70;99.90
10846;DHT22;5476;51.540;7.186;2023-05-10T12:28:02;18.90;99.90
10846;DHT22;5476;51.540;7.186;2023-05-10T12:30:31;19.00;99.90
10846;DHT22;5476;51.540;7.186;2023-05-10T12:33:08;18.80;99.90
10846;DHT22;5476;51.540;7.186;2023-05-10T12:35:47;18.80;99.90
10846;DHT22;5476;51.540;7.186;2023-05-10T12:38:28;18.90;99.90
10846;DHT22;5476;51.540;7.186;2023-05-10T12:41:00;19.10;99.90
10846;DHT22;5476;51.540;7.186;2023-05-10T12:43:28;19.20;99.90
10846;DHT22;5476;51.540;7.186;2023-05-10T12:45:55;19.20;99.90
10846;DHT22;5476;51.540;7.186;2023-05-10T12:48:24;19.30;99.90
10846;DHT22;5476;51.540;7.186;2023-05-10T12:50:51;19.30;99.90
10846;DHT22;5476;51.540;7.186;2023-05-10T12:53:18;19.50;99.90
10846;DHT22;5476;51.540;7.186;2023-05-10T12:55:46;19.70;99.90
10846;DHT22;5476;51.540;7.186;2023-05-10T12:58:14;19.80;99.90
10846;DHT22;5476;51.540;7.186;2023-05-10T13:00:41;19.70;99.90
10846;DHT22;5476;51.540;7.186;2023-05-10T13:03:09;19.70;99.90
10846;DHT22;5476;51.540;7.186;2023-05-10T13:05:38;19.60;99.90
10846;DHT22;5476;51.540;7.186;2023-05-10T13:08:05;19.60;99.90
10846;DHT22;5476;51.540;7.186;2023-05-10T13:10:32;19.60;99.90
10846;DHT22;5476;51.540;7.186;2023-05-10T13:12:59;19.40;99.90
10846;DHT22;5476;51.540;7.186;2023-05-10T13:15:26;19.40;99.90
10846;DHT22;5476;51.540;7.186;2023-05-10T13:17:53;19.40;99.90
10846;DHT22;5476;51.540;7.186;2023-05-10T13:20:21;19.60;99.90
10846;DHT22;5476;51.540;7.186;2023-05-10T13:22:49;19.70;99.90
10846;DHT22;5476;51.540;7.186;2023-05-10T13:25:16;19.90;99.90
10846;DHT22;5476;51.540;7.186;2023-05-10T13:27:43;20.10;99.90
10846;DHT22;5476;51.540;7.186;2023-05-10T13:30:10;20.10;99.90
10846;DHT22;5476;51.540;7.186;2023-05-10T13:32:38;20.30;99.90
10846;DHT22;5476;51.540;7.186;2023-05-10T13:35:06;20.30;99.90
10846;DHT22;5476;51.540;7.186;2023-05-10T13:37:33;20.50;99.90
10846;DHT22;5476;51.540;7.186;2023-05-10T13:40:05;20.50;99.90
10846;DHT22;5476;51.540;7.186;2023-05-10T13:42:32;20.60;99.90
10846;DHT22;5476;51.540;7.186;2023-05-10T13:45:00;20.80;99.90
10846;DHT22;5476;51.540;7.186;2023-05-10T13:47:27;21.00;99.90
10846;DHT22;5476;51.540;7.186;2023-05-10T13:49:54;21.00;99.90
10846;DHT22;5476;51.540;7.186;2023-05-10T13:52:21;21.20;99.90
10846;DHT22;5476;51.540;7.186;2023-05-10T13:54:48;21.30;99.90
10846;DHT22;5476;51.540;7.186;2023-05-10T13:57:18;21.40;99.90
10846;DHT22;5476;51.540;7.186;2023-05-10T13:59:45;21.60;99.90
10846;DHT22;5476;51.540;7.186;2023-05-10T14:02:13;21.60;99.90
10846;DHT22;5476;51.540;7.186;2023-05-10T14:04:43;21.70;99.90
10846;DHT22;5476;51.540;7.186;2023-05-10T14:07:10;21.40;99.90
10846;DHT22;5476;51.540;7.186;2023-05-10T14:09:37;21.40;99.90
10846;DHT22;5476;51.540;7.186;2023-05-10T14:12:04;21.40;99.90
10846;DHT22;5476;51.540;7.186;2023-05-10T14:14:32;21.40;99.90
10846;DHT22;5476;51.540;7.186;2023-05-10T14:16:59;21.40;99.90
10846;DHT22;5476;51.540;7.186;2023-05-10T14:19:26;21.50;99.90
10846;DHT22;5476;51.540;7.186;2023-05-10T14:21:56;21.60;99.90
10846;DHT22;5476;51.540;7.186;2023-05-10T14:24:23;21.80;99.90
10846;DHT22;5476;51.540;7.186;2023-05-10T14:27:11;21.90;99.90
10846;DHT22;5476;51.540;7.186;2023-05-10T14:29:40;19.90;99.90
10846;DHT22;5476;51.540;7.186;2023-05-10T14:32:07;21.80;99.90
10846;DHT22;5476;51.540;7.186;2023-05-10T14:34:34;21.70;99.90
10846;DHT22;5476;51.540;7.186;2023-05-10T14:37:01;21.60;99.90
10846;DHT22;5476;51.540;7.186;2023-05-10T14:39:28;21.80;99.90
10846;DHT22;5476;51.540;7.186;2023-05-10T14:41:56;21.90;99.90
10846;DHT22;5476;51.540;7.186;2023-05-10T14:44:24;21.60;99.90
10846;DHT22;5476;51.540;7.186;2023-05-10T14:46:52;21.90;99.90
10846;DHT22;5476;51.540;7.186;2023-05-10T14:49:19;21.90;99.90
10846;DHT22;5476;51.540;7.186;2023-05-10T14:51:48;22.00;99.90
10846;DHT22;5476;51.540;7.186;2023-05-10T14:54:15;22.40;99.90
10846;DHT22;5476;51.540;7.186;2023-05-10T14:56:42;22.70;99.90
10846;DHT22;5476;51.540;7.186;2023-05-10T14:59:09;22.70;99.90
10846;DHT22;5476;51.540;7.186;2023-05-10T15:01:36;22.70;99.90
10846;DHT22;5476;51.540;7.186;2023-05-10T15:04:05;22.70;99.90
10846;DHT22;5476;51.540;7.186;2023-05-10T15:06:32;22.70;99.90
10846;DHT22;5476;51.540;7.186;2023-05-10T15:09:00;22.80;99.90
10846;DHT22;5476;51.540;7.186;2023-05-10T15:11:27;22.90;99.90
10846;DHT22;5476;51.540;7.186;2023-05-10T15:13:54;23.00;99.90
10846;DHT22;5476;51.540;7.186;2023-05-10T15:16:21;22.90;99.90
10846;DHT22;5476;51.540;7.186;2023-05-10T15:18:48;23.00;99.90
10846;DHT22;5476;51.540;7.186;2023-05-10T15:21:17;23.10;99.90
10846;DHT22;5476;51.540;7.186;2023-05-10T15:23:44;23.10;99.90
10846;DHT22;5476;51.540;7.186;2023-05-10T15:26:10;23.20;99.90
10846;DHT22;5476;51.540;7.186;2023-05-10T15:28:37;23.30;99.90
10846;DHT22;5476;51.540;7.186;2023-05-10T15:31:04;23.40;99.90
10846;DHT22;5476;51.540;7.186;2023-05-10T15:33:31;23.40;99.90
10846;DHT22;5476;51.540;7.186;2023-05-10T15:35:58;23.40;99.90
10846;DHT22;5476;51.540;7.186;2023-05-10T15:38:27;23.40;99.90
10846;DHT22;5476;51.540;7.186;2023-05-10T15:40:56;23.50;99.90
10846;DHT22;5476;51.540;7.186;2023-05-10T15:43:23;23.60;99.90
10846;DHT22;5476;51.540;7.186;2023-05-10T15:45:50;23.40;99.90
10846;DHT22;5476;51.540;7.186;2023-05-10T15:48:17;23.30;99.90
10846;DHT22;5476;51.540;7.186;2023-05-10T15:50:44;23.30;99.90
10846;DHT22;5476;51.540;7.186;2023-05-10T15:53:11;23.20;99.90
10846;DHT22;5476;51.540;7.186;2023-05-10T15:55:39;23.20;99.90
10846;DHT22;5476;51.540;7.186;2023-05-10T15:58:06;23.00;99.90
10846;DHT22;5476;51.540;7.186;2023-05-10T16:00:33;22.90;99.90
10846;DHT22;5476;51.540;7.186;2023-05-10T16:03:00;22.90;99.90
10846;DHT22;5476;51.540;7.186;2023-05-10T16:05:27;22.90;99.90
10846;DHT22;5476;51.540;7.186;2023-05-10T16:07:57;22.80;99.90
10846;DHT22;5476;51.540;7.186;2023-05-10T16:10:24;22.70;99.90
10846;DHT22;5476;51.540;7.186;2023-05-10T16:12:52;22.70;99.90
10846;DHT22;5476;51.540;7.186;2023-05-10T16:15:20;22.60;99.90
10846;DHT22;5476;51.540;7.186;2023-05-10T16:17:47;22.50;99.90
10846;DHT22;5476;51.540;7.186;2023-05-10T16:20:14;22.50;99.90
10846;DHT22;5476;51.540;7.186;2023-05-10T16:22:41;22.30;99.90